Time;durP1;ratioP1;P1;durP2;ratioP2;P2;SDS_P1;SDS_P2;PMS_P1;PMS_P2;Temp;Humidity;BMP_temperature;BMP_pressure;BME280_temperature;BME280_humidity;BME280_pressure;Samples;Min_cycle;Max_cycle;Signal;HPM_P1;HPM_P2
2022/10/17 00:01:38;;;;;;;;;;;307.40;2304.00;;;;;;5093248;28;19934;-61
2022/10/17 00:04:04;;;;;;;;;;;307.30;2304.00;;;;;;5093531;28;20015;-62
2022/10/17 00:06:29;;;;;;;;;;;307.30;2304.00;;;;;;5093473;28;19916;-62
2022/10/17 00:08:55;;;;;;;;;;;307.30;2304.00;;;;;;5093294;28;19973;-62
2022/10/17 00:11:22;;;;;;;;;;;307.30;2304.00;;;;;;5093222;28;19987;-62
2022/10/17 00:13:48;;;;;;;;;;;307.40;2304.00;;;;;;5093285;28;19950;-62
2022/10/17 00:16:14;;;;;;;;;;;307.40;2304.00;;;;;;5093359;28;19951;-62
2022/10/17 00:18:40;;;;;;;;;;;307.40;2304.00;;;;;;5093136;28;20049;-63
2022/10/17 00:21:13;;;;;;;;;;;307.30;2304.00;;;;;;5093370;28;20036;-62
2022/10/17 00:23:38;;;;;;;;;;;307.30;2304.00;;;;;;5092892;28;19916;-62
2022/10/17 00:26:04;;;;;;;;;;;307.30;2304.00;;;;;;5093105;28;19915;-62
2022/10/17 00:28:30;;;;;;;;;;;307.40;2304.00;;;;;;5092831;28;19912;-62
2022/10/17 00:31:01;;;;;;;;;;;307.30;2304.00;;;;;;5092849;28;19992;-62
2022/10/17 00:33:27;;;;;;;;;;;307.30;2304.00;;;;;;5092726;28;19912;-62
2022/10/17 00:36:06;;;;;;;;;;;307.30;2304.00;;;;;;5092922;28;20384;-62
2022/10/17 00:38:31;;;;;;;;;;;307.20;2304.00;;;;;;5093050;28;20374;-61
2022/10/17 00:40:57;;;;;;;;;;;307.20;2304.00;;;;;;5092736;28;19940;-62
2022/10/17 00:43:23;;;;;;;;;;;282.40;2278.40;;;;;;5092878;28;20370;-62
2022/10/17 00:45:48;;;;;;;;;;;282.50;2278.40;;;;;;5092442;28;19937;-62
2022/10/17 00:48:14;;;;;;;;;;;282.40;2278.40;;;;;;5093048;28;19915;-61
2022/10/17 00:50:41;;;;;;;;;;;282.20;2278.40;;;;;;5092579;28;19919;-62
2022/10/17 00:53:07;;;;;;;;;;;282.20;2278.40;;;;;;5092476;28;20277;-62
2022/10/17 00:55:35;;;;;;;;;;;282.20;2278.40;;;;;;5091431;28;19908;-62
2022/10/17 00:58:02;;;;;;;;;;;282.30;2278.40;;;;;;5092279;28;20419;-62
2022/10/17 01:00:28;;;;;;;;;;;282.30;2278.40;;;;;;5092207;28;19908;-62
2022/10/17 01:02:53;;;;;;;;;;;282.30;2278.40;;;;;;5092360;28;19977;-62
2022/10/17 01:05:19;;;;;;;;;;;282.30;2278.40;;;;;;5092233;28;19916;-62
2022/10/17 01:07:46;;;;;;;;;;;282.20;2278.40;;;;;;5092499;28;19908;-62
2022/10/17 01:10:12;;;;;;;;;;;282.20;2278.40;;;;;;5092434;28;19913;-62
2022/10/17 01:12:49;;;;;;;;;;;282.10;2278.40;;;;;;5092091;28;19908;-61
2022/10/17 01:15:33;;;;;;;;;;;282.10;2278.40;;;;;;5092187;28;19908;-61
2022/10/17 01:17:59;;;;;;;;;;;282.20;2278.40;;;;;;5092149;28;20259;-61
2022/10/17 01:20:27;;;;;;;;;;;282.20;2278.40;;;;;;5092050;28;19954;-62
2022/10/17 01:22:53;;;;;;;;;;;282.10;2278.40;;;;;;5092040;28;19911;-61
2022/10/17 01:25:35;;;;;;;;;;;282.20;2278.40;;;;;;5091879;28;20358;-62
2022/10/17 01:28:03;;;;;;;;;;;282.20;2278.40;;;;;;5091888;28;19908;-62
2022/10/17 01:30:54;;;;;;;;;;;282.20;2278.40;;;;;;5091688;28;19950;-62
2022/10/17 01:33:39;;;;;;;;;;;282.20;2278.40;;;;;;5091544;28;19959;-62
2022/10/17 01:36:11;;;;;;;;;;;282.20;2278.40;;;;;;5091364;28;19965;-61
2022/10/17 01:38:46;;;;;;;;;;;282.10;2278.40;;;;;;5091818;28;19952;-62
2022/10/17 01:41:11;;;;;;;;;;;282.20;2278.40;;;;;;5092011;28;19915;-62
2022/10/17 01:43:43;;;;;;;;;;;282.10;2278.40;;;;;;5091445;28;19916;-62
2022/10/17 01:46:13;;;;;;;;;;;282.10;2278.40;;;;;;5091481;28;20315;-62
2022/10/17 01:48:41;;;;;;;;;;;282.10;2278.40;;;;;;5091317;28;19908;-62
2022/10/17 01:51:09;;;;;;;;;;;282.10;2278.40;;;;;;5091231;28;20366;-62
2022/10/17 01:53:38;;;;;;;;;;;282.10;2278.40;;;;;;5091551;28;19908;-61
2022/10/17 01:56:05;;;;;;;;;;;282.00;2278.40;;;;;;5091548;28;19908;-62
2022/10/17 01:58:44;;;;;;;;;;;282.00;2278.40;;;;;;5091198;28;19908;-62
2022/10/17 02:01:11;;;;;;;;;;;281.90;2278.40;;;;;;5090859;28;19908;-62
2022/10/17 02:03:38;;;;;;;;;;;281.90;2278.40;;;;;;5091129;28;19931;-62
2022/10/17 02:06:04;;;;;;;;;;;282.00;2278.40;;;;;;5090936;28;19951;-62
2022/10/17 02:08:59;;;;;;;;;;;282.00;2278.40;;;;;;5090833;28;19967;-62
2022/10/17 02:11:25;;;;;;;;;;;281.90;2278.40;;;;;;5049028;28;20314;-61
2022/10/17 02:14:00;;;;;;;;;;;282.00;2278.40;;;;;;5048435;28;20457;-62
2022/10/17 02:16:25;;;;;;;;;;;282.00;2278.40;;;;;;5048639;28;20353;-61
2022/10/17 02:18:57;;;;;;;;;;;282.00;2278.40;;;;;;5048474;28;20008;-62
2022/10/17 02:21:27;;;;;;;;;;;282.00;2278.40;;;;;;5048579;28;19909;-62
2022/10/17 02:23:58;;;;;;;;;;;282.00;2278.40;;;;;;5048582;28;19917;-62
2022/10/17 02:26:24;;;;;;;;;;;281.90;2278.40;;;;;;5048519;28;19919;-62
2022/10/17 02:28:58;;;;;;;;;;;281.90;2278.40;;;;;;5048357;28;19908;-62
2022/10/17 02:31:50;;;;;;;;;;;281.90;2278.40;;;;;;5048419;28;19947;-62
2022/10/17 02:34:18;;;;;;;;;;;281.90;2278.40;;;;;;5046352;28;20009;-61
2022/10/17 02:36:52;;;;;;;;;;;282.00;2278.40;;;;;;5048500;28;20044;-60
2022/10/17 02:39:19;;;;;;;;;;;281.90;2278.40;;;;;;5048271;28;19909;-61
2022/10/17 02:41:45;;;;;;;;;;;281.80;2278.40;;;;;;5048480;28;20335;-61
2022/10/17 02:44:11;;;;;;;;;;;281.80;2278.40;;;;;;5048077;28;20015;-61
2022/10/17 02:46:37;;;;;;;;;;;281.70;2278.40;;;;;;5048689;28;20020;-61
2022/10/17 02:49:05;;;;;;;;;;;281.60;2278.40;;;;;;5090752;28;20003;-61
2022/10/17 02:51:31;;;;;;;;;;;281.60;2278.40;;;;;;5090550;28;19908;-61
2022/10/17 02:54:09;;;;;;;;;;;256.90;2252.80;;;;;;5090365;28;20268;-62
2022/10/17 02:56:55;;;;;;;;;;;281.60;2278.40;;;;;;5090796;28;20380;-62
2022/10/17 02:59:21;;;;;;;;;;;281.60;2278.40;;;;;;5082520;28;19958;-62
2022/10/17 03:01:48;;;;;;;;;;;281.60;2278.40;;;;;;5090411;28;20388;-63
2022/10/17 03:04:14;;;;;;;;;;;281.70;2278.40;;;;;;5090389;28;20004;-61
2022/10/17 03:06:40;;;;;;;;;;;281.60;2278.40;;;;;;5090565;28;19936;-62
2022/10/17 03:09:05;;;;;;;;;;;281.60;2278.40;;;;;;5090571;28;19928;-61
2022/10/17 03:11:31;;;;;;;;;;;256.90;2252.80;;;;;;5090438;28;19908;-61
2022/10/17 03:13:57;;;;;;;;;;;256.80;2252.80;;;;;;5090166;28;20365;-62
2022/10/17 03:16:22;;;;;;;;;;;256.80;2252.80;;;;;;5089003;28;19908;-62
2022/10/17 03:18:48;;;;;;;;;;;256.80;2252.80;;;;;;5091973;28;19994;-62
2022/10/17 03:21:13;;;;;;;;;;;256.80;2252.80;;;;;;5094470;28;20321;-62
2022/10/17 03:23:39;;;;;;;;;;;256.80;2252.80;;;;;;5093966;28;19916;-62
2022/10/17 03:26:05;;;;;;;;;;;256.80;2252.80;;;;;;5094311;28;19908;-62
2022/10/17 03:28:31;;;;;;;;;;;256.80;2252.80;;;;;;5094149;28;19995;-62
2022/10/17 03:30:56;;;;;;;;;;;256.80;2252.80;;;;;;5094005;28;19947;-63
2022/10/17 03:33:22;;;;;;;;;;;256.80;2252.80;;;;;;5094008;28;20340;-62
2022/10/17 03:35:47;;;;;;;;;;;256.80;2252.80;;;;;;5093869;28;19912;-62
2022/10/17 03:38:13;;;;;;;;;;;256.90;2252.80;;;;;;5094223;28;19915;-61
2022/10/17 03:40:38;;;;;;;;;;;256.80;2252.80;;;;;;5093780;28;20014;-62
2022/10/17 03:43:04;;;;;;;;;;;256.80;2252.80;;;;;;5094013;28;19908;-62
2022/10/17 03:45:29;;;;;;;;;;;256.70;2252.80;;;;;;5093879;28;19922;-61
2022/10/17 03:47:55;;;;;;;;;;;256.70;2252.80;;;;;;5093781;28;19912;-62
2022/10/17 03:50:20;;;;;;;;;;;256.60;2252.80;;;;;;5093745;28;20350;-62
2022/10/17 03:52:47;;;;;;;;;;;256.60;2252.80;;;;;;5093550;28;20011;-62
2022/10/17 03:55:13;;;;;;;;;;;256.60;2252.80;;;;;;5094058;28;19991;-62
2022/10/17 03:57:38;;;;;;;;;;;256.50;2252.80;;;;;;5093551;28;19908;-62
2022/10/17 04:00:04;;;;;;;;;;;256.50;2252.80;;;;;;5093590;28;19915;-61
2022/10/17 04:02:30;;;;;;;;;;;256.50;2252.80;;;;;;5093397;28;19918;-62
2022/10/17 04:04:55;;;;;;;;;;;256.50;2252.80;;;;;;5093386;28;19926;-61
2022/10/17 04:07:21;;;;;;;;;;;256.50;2252.80;;;;;;5093439;28;20308;-62
2022/10/17 04:09:46;;;;;;;;;;;256.50;2252.80;;;;;;5093151;28;19920;-62
2022/10/17 04:12:12;;;;;;;;;;;256.50;2252.80;;;;;;5093661;28;19915;-62
2022/10/17 04:14:37;;;;;;;;;;;256.50;2252.80;;;;;;5093253;28;19912;-61
2022/10/17 04:17:03;;;;;;;;;;;256.50;2252.80;;;;;;5093187;28;19915;-63
2022/10/17 04:19:28;;;;;;;;;;;256.50;2252.80;;;;;;5093211;28;19908;-62
2022/10/17 04:21:54;;;;;;;;;;;256.40;2252.80;;;;;;5093178;28;20239;-62
2022/10/17 04:24:19;;;;;;;;;;;256.40;2252.80;;;;;;5093173;28;20346;-62
2022/10/17 04:26:47;;;;;;;;;;;256.40;2252.80;;;;;;5093241;28;19943;-61
2022/10/17 04:29:14;;;;;;;;;;;256.40;2252.80;;;;;;5093177;28;19908;-61
2022/10/17 04:31:39;;;;;;;;;;;256.40;2252.80;;;;;;5092775;28;19912;-61
2022/10/17 04:34:05;;;;;;;;;;;256.30;2252.80;;;;;;5092744;28;20006;-61
2022/10/17 04:36:30;;;;;;;;;;;256.30;2252.80;;;;;;5092770;28;19919;-62
2022/10/17 04:38:56;;;;;;;;;;;256.30;2252.80;;;;;;5092779;28;20316;-62
2022/10/17 04:41:22;;;;;;;;;;;256.30;2252.80;;;;;;5092988;28;19954;-62
2022/10/17 04:43:47;;;;;;;;;;;256.20;2252.80;;;;;;5092718;28;20312;-62
2022/10/17 04:46:13;;;;;;;;;;;256.10;2252.80;;;;;;5092979;28;20362;-61
2022/10/17 04:48:39;;;;;;;;;;;256.10;2252.80;;;;;;5092458;28;20003;-61
2022/10/17 04:51:06;;;;;;;;;;;256.10;2252.80;;;;;;5092656;28;20035;-62
2022/10/17 04:53:33;;;;;;;;;;;256.10;2252.80;;;;;;5092701;28;19915;-61
2022/10/17 04:55:58;;;;;;;;;;;256.20;2252.80;;;;;;5092530;28;19908;-61
2022/10/17 04:58:24;;;;;;;;;;;256.20;2252.80;;;;;;5092598;28;20392;-61
2022/10/17 05:00:49;;;;;;;;;;;256.20;2252.80;;;;;;5092424;28;20336;-61
2022/10/17 05:03:15;;;;;;;;;;;256.30;2252.80;;;;;;5092252;28;20018;-62
2022/10/17 05:05:41;;;;;;;;;;;256.30;2252.80;;;;;;5092321;28;20285;-61
2022/10/17 05:08:07;;;;;;;;;;;256.30;2252.80;;;;;;5091884;28;20327;-61
2022/10/17 05:10:36;;;;;;;;;;;256.40;2252.80;;;;;;5092241;28;20372;-60
2022/10/17 05:13:02;;;;;;;;;;;256.40;2252.80;;;;;;5092381;28;19909;-61
2022/10/17 05:15:27;;;;;;;;;;;256.50;2252.80;;;;;;5091997;28;20457;-62
2022/10/17 05:17:55;;;;;;;;;;;256.50;2252.80;;;;;;5092110;28;19998;-62
2022/10/17 05:20:21;;;;;;;;;;;256.60;2252.80;;;;;;5092134;28;20357;-62
2022/10/17 05:22:47;;;;;;;;;;;256.60;2252.80;;;;;;5091848;28;19912;-62
2022/10/17 05:25:12;;;;;;;;;;;256.60;2252.80;;;;;;5092060;28;20373;-61
2022/10/17 05:27:38;;;;;;;;;;;256.60;2252.80;;;;;;5091920;28;19909;-62
2022/10/17 05:30:04;;;;;;;;;;;256.50;2252.80;;;;;;5091900;28;20006;-62
2022/10/17 05:32:30;;;;;;;;;;;256.40;2252.80;;;;;;5091550;28;20443;-62
2022/10/17 05:34:56;;;;;;;;;;;256.50;2252.80;;;;;;5091707;28;19912;-61
2022/10/17 05:37:21;;;;;;;;;;;256.60;2252.80;;;;;;5091755;28;19912;-62
2022/10/17 05:39:47;;;;;;;;;;;256.70;2252.80;;;;;;5091357;28;19916;-61
2022/10/17 05:42:12;;;;;;;;;;;256.70;2252.80;;;;;;5091484;28;20357;-62
2022/10/17 05:44:40;;;;;;;;;;;256.50;2252.80;;;;;;5091309;28;19962;-61
2022/10/17 05:47:06;;;;;;;;;;;256.40;2252.80;;;;;;5091620;28;19908;-61
2022/10/17 05:49:32;;;;;;;;;;;256.40;2252.80;;;;;;5091570;28;20322;-61
2022/10/17 05:51:57;;;;;;;;;;;256.50;2252.80;;;;;;5091421;28;19958;-61
2022/10/17 05:54:23;;;;;;;;;;;256.70;2252.80;;;;;;5091515;28;19908;-61
2022/10/17 05:56:52;;;;;;;;;;;256.80;2252.80;;;;;;5091199;28;19912;-61
2022/10/17 05:59:18;;;;;;;;;;;256.90;2252.80;;;;;;5091381;28;20029;-61
2022/10/17 06:01:43;;;;;;;;;;;256.90;2252.80;;;;;;5091417;28;19966;-62
2022/10/17 06:04:09;;;;;;;;;;;256.90;2252.80;;;;;;5090921;28;19920;-62
2022/10/17 06:06:35;;;;;;;;;;;281.60;2278.40;;;;;;5091257;28;19919;-61
2022/10/17 06:09:01;;;;;;;;;;;281.70;2278.40;;;;;;5090242;28;19943;-61
2022/10/17 06:11:26;;;;;;;;;;;281.80;2278.40;;;;;;5090338;28;20362;-61
2022/10/17 06:13:52;;;;;;;;;;;281.90;2278.40;;;;;;5090294;28;20362;-61
2022/10/17 06:16:17;;;;;;;;;;;282.00;2278.40;;;;;;5090157;28;19974;-62
2022/10/17 06:18:43;;;;;;;;;;;282.20;2278.40;;;;;;5090317;28;19908;-61
2022/10/17 06:21:09;;;;;;;;;;;282.50;2278.40;;;;;;5090051;28;19915;-62
2022/10/17 06:23:35;;;;;;;;;;;307.30;2304.00;;;;;;5090200;28;20266;-61
2022/10/17 06:26:01;;;;;;;;;;;307.60;2304.00;;;;;;5089940;28;19918;-62
2022/10/17 06:28:27;;;;;;;;;;;307.70;2304.00;;;;;;5089836;28;19955;-62
2022/10/17 06:30:53;;;;;;;;;;;307.80;2304.00;;;;;;5090136;28;19912;-61
2022/10/17 06:33:19;;;;;;;;;;;307.80;2304.00;;;;;;5089617;28;20423;-62
2022/10/17 06:35:51;;;;;;;;;;;307.70;2304.00;;;;;;5090196;28;19913;-61
2022/10/17 06:38:17;;;;;;;;;;;307.80;2304.00;;;;;;5089738;28;19955;-60
2022/10/17 06:40:43;;;;;;;;;;;307.80;2304.00;;;;;;5089979;28;20041;-61
2022/10/17 06:43:08;;;;;;;;;;;307.70;2304.00;;;;;;5089885;28;19908;-61
2022/10/17 06:45:34;;;;;;;;;;;307.80;2304.00;;;;;;5089956;28;19912;-62
2022/10/17 06:48:01;;;;;;;;;;;307.90;2304.00;;;;;;5089684;28;19912;-62
2022/10/17 06:50:26;;;;;;;;;;;307.90;2304.00;;;;;;5089974;28;19919;-61
2022/10/17 06:52:52;;;;;;;;;;;308.00;2304.00;;;;;;5088680;28;19908;-62
2022/10/17 06:55:17;;;;;;;;;;;308.00;2304.00;;;;;;5089727;28;19916;-62
2022/10/17 06:57:43;;;;;;;;;;;308.00;2304.00;;;;;;5089833;28;19911;-62
2022/10/17 07:00:09;;;;;;;;;;;308.10;2304.00;;;;;;5089666;28;19912;-63
2022/10/17 07:02:34;;;;;;;;;;;308.10;2304.00;;;;;;5089716;28;20267;-62
2022/10/17 07:05:00;;;;;;;;;;;332.90;2329.60;;;;;;5089121;28;20357;-62
2022/10/17 07:07:25;;;;;;;;;;;333.30;2329.60;;;;;;5089690;28;19973;-62
2022/10/17 07:09:51;;;;;;;;;;;384.60;2329.60;;;;;;5057551;28;873697;-62
2022/10/17 07:12:17;;;;;;;;;;;460.80;2380.80;;;;;;5090182;28;19916;-63
2022/10/17 07:14:45;;;;;;;;;;;512.40;2355.20;;;;;;5089621;28;19953;-63
2022/10/17 07:17:12;;;;;;;;;;;563.30;2124.80;;;;;;5090330;28;19959;-63
2022/10/17 07:19:37;;;;;;;;;;;563.90;1996.80;;;;;;5090190;28;19909;-63
2022/10/17 07:22:03;;;;;;;;;;;564.00;1945.60;;;;;;5090327;28;19934;-63
2022/10/17 07:24:28;;;;;;;;;;;588.90;1894.40;;;;;;5090049;28;19956;-62
2022/10/17 07:26:54;;;;;;;;;;;614.50;1792.00;;;;;;5090289;28;19912;-63
2022/10/17 07:29:19;;;;;;;;;;;614.70;1740.80;;;;;;5090358;28;20056;-64
2022/10/17 07:31:47;;;;;;;;;;;640.40;1664.00;;;;;;5090609;28;19969;-62
2022/10/17 07:34:13;;;;;;;;;;;640.20;1638.40;;;;;;5090247;28;19912;-62
2022/10/17 07:36:38;;;;;;;;;;;666.40;1587.20;;;;;;5089998;28;19962;-62
2022/10/17 07:39:04;;;;;;;;;;;691.90;1536.00;;;;;;5090166;28;20337;-59
2022/10/17 07:41:30;;;;;;;;;;;742.40;1484.80;;;;;;5089956;28;19918;-60
2022/10/17 07:43:55;;;;;;;;;;;692.10;1484.80;;;;;;5090167;28;19916;-63
2022/10/17 07:46:21;;;;;;;;;;;691.70;1484.80;;;;;;5089888;28;20006;-60
2022/10/17 07:48:46;;;;;;;;;;;692.10;1484.80;;;;;;5090162;28;19908;-60
2022/10/17 07:51:12;;;;;;;;;;;742.40;1484.80;;;;;;5088565;28;19912;-63
2022/10/17 07:53:38;;;;;;;;;;;742.40;1433.60;;;;;;5089916;28;19915;-64
2022/10/17 07:56:05;;;;;;;;;;;768.50;1382.40;;;;;;5089879;28;19908;-64
2022/10/17 07:58:31;;;;;;;;;;;717.40;1459.20;;;;;;5089867;28;19950;-63
2022/10/17 08:01:00;;;;;;;;;;;717.50;1459.20;;;;;;5089720;28;20284;-64
2022/10/17 08:03:26;;;;;;;;;;;742.50;1459.20;;;;;;5089824;28;19917;-63
2022/10/17 08:05:51;;;;;;;;;;;768.60;1356.80;;;;;;5093120;28;20021;-62
2022/10/17 08:08:17;;;;;;;;;;;768.70;1331.20;;;;;;5093163;28;20010;-63
2022/10/17 08:10:42;;;;;;;;;;;794.10;1356.80;;;;;;5093615;28;19912;-62
2022/10/17 08:13:08;;;;;;;;;;;768.30;1356.80;;;;;;5093625;28;20324;-63
2022/10/17 08:15:35;;;;;;;;;;;794.50;1331.20;;;;;;5093378;28;19908;-62
2022/10/17 08:18:01;;;;;;;;;;;794.50;1305.60;;;;;;5093006;28;19912;-62
2022/10/17 08:20:27;;;;;;;;;;;768.90;1305.60;;;;;;5093033;28;19934;-63
2022/10/17 08:22:53;;;;;;;;;;;793.60;1331.20;;;;;;5093261;28;19909;-62
2022/10/17 08:25:19;;;;;;;;;;;794.30;1305.60;;;;;;5093006;28;19916;-62
2022/10/17 08:27:45;;;;;;;;;;;768.50;1305.60;;;;;;5093337;28;20007;-64
2022/10/17 08:30:10;;;;;;;;;;;768.40;1331.20;;;;;;5092183;28;19908;-65
2022/10/17 08:32:36;;;;;;;;;;;742.80;1382.40;;;;;;5093266;28;19995;-63
2022/10/17 08:35:02;;;;;;;;;;;768.00;1331.20;;;;;;5092946;28;20273;-62
2022/10/17 08:37:28;;;;;;;;;;;768.10;1331.20;;;;;;5092931;28;19961;-62
2022/10/17 08:39:54;;;;;;;;;;;793.80;1356.80;;;;;;5092957;28;19908;-63
2022/10/17 08:42:28;;;;;;;;;;;743.30;1356.80;;;;;;5092741;28;19919;-62
2022/10/17 08:45:13;;;;;;;;;;;768.10;1331.20;;;;;;5093008;28;20254;-62
2022/10/17 08:47:44;;;;;;;;;;;743.00;1356.80;;;;;;5092712;28;19915;-62
2022/10/17 08:50:28;;;;;;;;;;;768.10;1331.20;;;;;;5092654;28;19908;-62
2022/10/17 08:52:56;;;;;;;;;;;743.00;1382.40;;;;;;5092622;28;19908;-62
2022/10/17 08:55:31;;;;;;;;;;;742.50;1408.00;;;;;;5092615;28;19915;-62
2022/10/17 08:57:56;;;;;;;;;;;717.70;1382.40;;;;;;5092555;28;19908;-62
2022/10/17 09:00:22;;;;;;;;;;;742.40;1408.00;;;;;;5092501;28;19908;-61
2022/10/17 09:02:47;;;;;;;;;;;717.10;1408.00;;;;;;5092047;28;20049;-61
2022/10/17 09:05:28;;;;;;;;;;;692.10;1433.60;;;;;;5092471;28;19924;-62
2022/10/17 09:08:12;;;;;;;;;;;666.40;1484.80;;;;;;5092285;28;20283;-61
2022/10/17 09:10:59;;;;;;;;;;;640.50;1536.00;;;;;;5092196;28;19908;-61
2022/10/17 09:13:33;;;;;;;;;;;614.60;1612.80;;;;;;5092307;28;19909;-61
2022/10/17 09:16:00;;;;;;;;;;;614.60;1638.40;;;;;;5090951;28;19962;-61
2022/10/17 09:18:25;;;;;;;;;;;614.80;1612.80;;;;;;5092122;28;19908;-62
2022/10/17 09:20:53;;;;;;;;;;;589.20;1664.00;;;;;;5092032;28;20037;-62
2022/10/17 09:23:21;;;;;;;;;;;588.80;1715.20;;;;;;5091715;28;20010;-61
2022/10/17 09:25:49;;;;;;;;;;;589.20;1689.60;;;;;;5091884;28;19915;-61
2022/10/17 09:28:18;;;;;;;;;;;563.80;1740.80;;;;;;5091984;28;20361;-61
2022/10/17 09:30:50;;;;;;;;;;;563.80;1740.80;;;;;;5091946;28;20007;-61
2022/10/17 09:33:21;;;;;;;;;;;563.70;1766.40;;;;;;5091746;28;20009;-61
2022/10/17 09:35:48;;;;;;;;;;;564.10;1766.40;;;;;;5091585;28;19923;-61
2022/10/17 09:38:18;;;;;;;;;;;563.40;1766.40;;;;;;5092036;28;19908;-61
2022/10/17 09:40:45;;;;;;;;;;;563.80;1766.40;;;;;;5091682;28;19990;-61
2022/10/17 09:43:12;;;;;;;;;;;563.80;1740.80;;;;;;5091258;28;19912;-61
2022/10/17 09:45:43;;;;;;;;;;;563.50;1817.60;;;;;;5091676;28;19912;-61
2022/10/17 09:48:45;;;;;;;;;;;563.20;1843.20;;;;;;5091361;28;19953;-61
2022/10/17 09:51:11;;;;;;;;;;;563.20;1843.20;;;;;;5049092;28;19913;-61
2022/10/17 09:53:38;;;;;;;;;;;563.50;1817.60;;;;;;5049071;28;19934;-62
2022/10/17 09:56:07;;;;;;;;;;;563.50;1817.60;;;;;;5049107;28;19916;-61
2022/10/17 09:58:47;;;;;;;;;;;563.60;1817.60;;;;;;5049007;28;20386;-61
2022/10/17 10:01:18;;;;;;;;;;;563.60;1792.00;;;;;;5049148;28;19909;-60
2022/10/17 10:03:44;;;;;;;;;;;563.60;1817.60;;;;;;5048835;28;19960;-61
2022/10/17 10:06:14;;;;;;;;;;;563.20;1843.20;;;;;;5048652;28;20773;-61
2022/10/17 10:08:50;;;;;;;;;;;538.20;1843.20;;;;;;5048498;28;20478;-60
2022/10/17 10:11:16;;;;;;;;;;;538.40;1843.20;;;;;;5048948;28;20432;-60
2022/10/17 10:13:42;;;;;;;;;;;538.50;1817.60;;;;;;5048881;28;19915;-61
2022/10/17 10:16:13;;;;;;;;;;;538.50;1868.80;;;;;;5048481;28;19909;-61
2022/10/17 10:18:39;;;;;;;;;;;538.30;1868.80;;;;;;5048301;28;19999;-61
2022/10/17 10:21:07;;;;;;;;;;;538.50;1843.20;;;;;;5048624;28;20448;-61
2022/10/17 10:23:34;;;;;;;;;;;538.50;1843.20;;;;;;5048501;28;20027;-61
2022/10/17 10:26:02;;;;;;;;;;;563.50;1894.40;;;;;;5085277;28;19919;-61
2022/10/17 10:28:32;;;;;;;;;;;563.40;1843.20;;;;;;5090443;28;19915;-61
2022/10/17 10:31:00;;;;;;;;;;;563.40;1817.60;;;;;;5090654;28;19908;-61
2022/10/17 10:33:27;;;;;;;;;;;563.40;1817.60;;;;;;5090604;28;20365;-60
2022/10/17 10:35:55;;;;;;;;;;;563.30;1843.20;;;;;;5090789;28;19918;-62
2022/10/17 10:38:21;;;;;;;;;;;563.50;1817.60;;;;;;5090750;28;20270;-61
2022/10/17 10:40:51;;;;;;;;;;;563.50;1792.00;;;;;;5090941;28;19915;-61
2022/10/17 10:43:20;;;;;;;;;;;563.60;1817.60;;;;;;5090506;28;20007;-61
2022/10/17 10:45:45;;;;;;;;;;;563.40;1792.00;;;;;;5090790;28;19912;-60
2022/10/17 10:48:23;;;;;;;;;;;563.50;1817.60;;;;;;5090448;28;19908;-61
2022/10/17 10:50:48;;;;;;;;;;;563.50;1792.00;;;;;;5090533;28;20049;-61
2022/10/17 10:53:14;;;;;;;;;;;563.60;1792.00;;;;;;5090658;28;19973;-61
2022/10/17 10:55:44;;;;;;;;;;;563.70;1766.40;;;;;;5090439;28;19912;-61
2022/10/17 10:58:25;;;;;;;;;;;563.70;1792.00;;;;;;5090394;28;20188;-61
2022/10/17 11:00:51;;;;;;;;;;;563.60;1766.40;;;;;;5090216;28;19912;-60
2022/10/17 11:03:27;;;;;;;;;;;563.60;1766.40;;;;;;5090180;28;20468;-60
2022/10/17 11:06:11;;;;;;;;;;;563.50;1740.80;;;;;;5090520;28;19917;-60
2022/10/17 11:08:46;;;;;;;;;;;563.70;1740.80;;;;;;5089966;28;19924;-61
2022/10/17 11:11:18;;;;;;;;;;;563.70;1740.80;;;;;;5090245;28;19908;-61
2022/10/17 11:13:56;;;;;;;;;;;563.60;1715.20;;;;;;5090446;28;19915;-61
2022/10/17 11:16:27;;;;;;;;;;;563.70;1715.20;;;;;;5090266;28;19908;-60
2022/10/17 11:19:01;;;;;;;;;;;563.70;1740.80;;;;;;5090394;28;19908;-61
2022/10/17 11:21:36;;;;;;;;;;;563.80;1715.20;;;;;;5090096;28;20363;-61
2022/10/17 11:24:01;;;;;;;;;;;563.70;1740.80;;;;;;5090147;28;20010;-60
2022/10/17 11:26:30;;;;;;;;;;;563.70;1715.20;;;;;;5090196;28;20395;-61
2022/10/17 11:28:57;;;;;;;;;;;563.90;1740.80;;;;;;5090426;28;20052;-60
2022/10/17 11:31:24;;;;;;;;;;;563.90;1689.60;;;;;;5090087;28;20316;-61
2022/10/17 11:34:01;;;;;;;;;;;563.90;1664.00;;;;;;5089850;28;20269;-61
2022/10/17 11:36:30;;;;;;;;;;;563.90;1689.60;;;;;;5089943;28;19959;-61
2022/10/17 11:39:09;;;;;;;;;;;563.90;1689.60;;;;;;5090524;28;19912;-60
2022/10/17 11:41:34;;;;;;;;;;;563.90;1689.60;;;;;;5093994;28;19909;-61
2022/10/17 11:44:10;;;;;;;;;;;563.70;1689.60;;;;;;5093744;28;19966;-61
2022/10/17 11:46:36;;;;;;;;;;;563.90;1689.60;;;;;;5093960;28;19950;-60
2022/10/17 11:49:16;;;;;;;;;;;563.90;1689.60;;;;;;5093819;28;19998;-60
2022/10/17 11:51:47;;;;;;;;;;;564.10;1715.20;;;;;;5094095;28;20446;-59
2022/10/17 11:54:28;;;;;;;;;;;564.00;1664.00;;;;;;5093833;28;19951;-61
2022/10/17 11:57:12;;;;;;;;;;;564.00;1689.60;;;;;;5093799;28;19909;-60
2022/10/17 11:59:38;;;;;;;;;;;564.00;1664.00;;;;;;5093400;28;19908;-60
2022/10/17 12:02:07;;;;;;;;;;;564.10;1664.00;;;;;;5093730;28;19908;-60
2022/10/17 12:04:39;;;;;;;;;;;564.00;1664.00;;;;;;5093485;28;19926;-60
2022/10/17 12:07:13;;;;;;;;;;;564.10;1664.00;;;;;;5093498;28;20359;-61
2022/10/17 12:09:54;;;;;;;;;;;564.00;1664.00;;;;;;5093129;28;19920;-61
2022/10/17 12:12:27;;;;;;;;;;;564.00;1664.00;;;;;;5093062;28;19917;-60
2022/10/17 12:14:53;;;;;;;;;;;564.10;1638.40;;;;;;5093294;28;19908;-60
2022/10/17 12:17:33;;;;;;;;;;;563.90;1664.00;;;;;;5093198;28;19908;-60
2022/10/17 12:20:17;;;;;;;;;;;564.00;1664.00;;;;;;5093106;28;19908;-61
2022/10/17 12:22:47;;;;;;;;;;;564.00;1638.40;;;;;;5093256;28;19908;-60
2022/10/17 12:25:28;;;;;;;;;;;564.00;1664.00;;;;;;5093468;28;19920;-61
2022/10/17 12:28:06;;;;;;;;;;;563.90;1638.40;;;;;;5093242;28;20028;-61
2022/10/17 12:30:32;;;;;;;;;;;564.00;1638.40;;;;;;5092977;28;19908;-61
2022/10/17 12:33:04;;;;;;;;;;;564.10;1638.40;;;;;;5092709;28;19931;-61
2022/10/17 12:35:31;;;;;;;;;;;564.10;1664.00;;;;;;5092784;28;19916;-61
2022/10/17 12:38:22;;;;;;;;;;;564.10;1638.40;;;;;;5092710;28;19908;-60
2022/10/17 12:40:49;;;;;;;;;;;564.10;1638.40;;;;;;5090469;28;19962;-61
2022/10/17 12:43:15;;;;;;;;;;;564.00;1638.40;;;;;;5092953;28;19947;-60
2022/10/17 12:45:47;;;;;;;;;;;564.10;1638.40;;;;;;5092668;28;19978;-61
2022/10/17 12:48:32;;;;;;;;;;;564.10;1638.40;;;;;;5092756;28;20000;-61
2022/10/17 12:51:02;;;;;;;;;;;588.90;1638.40;;;;;;5092451;28;19916;-60
2022/10/17 12:53:37;;;;;;;;;;;564.10;1638.40;;;;;;5092446;28;20003;-60
2022/10/17 12:56:04;;;;;;;;;;;588.80;1638.40;;;;;;5092584;28;20346;-61
2022/10/17 12:58:29;;;;;;;;;;;564.10;1612.80;;;;;;5092426;28;19908;-61
2022/10/17 13:00:56;;;;;;;;;;;564.10;1612.80;;;;;;5092446;28;19930;-60
2022/10/17 13:03:27;;;;;;;;;;;564.10;1612.80;;;;;;5092438;28;19960;-61
2022/10/17 13:05:53;;;;;;;;;;;564.10;1638.40;;;;;;5092562;28;19923;-61
2022/10/17 13:08:24;;;;;;;;;;;564.10;1612.80;;;;;;5091955;28;20305;-61
2022/10/17 13:10:51;;;;;;;;;;;564.10;1612.80;;;;;;5092115;28;19947;-60
2022/10/17 13:13:22;;;;;;;;;;;564.10;1612.80;;;;;;5092298;28;19951;-60
2022/10/17 13:15:49;;;;;;;;;;;564.10;1612.80;;;;;;5092177;28;20000;-61
2022/10/17 13:18:20;;;;;;;;;;;564.10;1612.80;;;;;;5092256;28;19908;-61
2022/10/17 13:20:54;;;;;;;;;;;564.10;1587.20;;;;;;5092280;28;19908;-60
2022/10/17 13:23:38;;;;;;;;;;;564.10;1587.20;;;;;;5091680;28;20277;-61
2022/10/17 13:26:06;;;;;;;;;;;564.10;1587.20;;;;;;5092276;28;19961;-60
2022/10/17 13:28:32;;;;;;;;;;;588.80;1587.20;;;;;;5092185;28;19958;-61
2022/10/17 13:30:58;;;;;;;;;;;564.10;1587.20;;;;;;5091808;28;20358;-60
2022/10/17 13:33:29;;;;;;;;;;;564.10;1561.60;;;;;;5091807;28;20384;-60
2022/10/17 13:35:55;;;;;;;;;;;588.80;1561.60;;;;;;5092029;28;19951;-61
2022/10/17 13:38:23;;;;;;;;;;;564.10;1561.60;;;;;;5091594;28;19943;-61
2022/10/17 13:40:49;;;;;;;;;;;564.10;1561.60;;;;;;5091384;28;20007;-60
2022/10/17 13:43:16;;;;;;;;;;;564.10;1561.60;;;;;;5089299;28;19987;-61
2022/10/17 13:45:45;;;;;;;;;;;564.10;1561.60;;;;;;5090164;28;19912;-61
2022/10/17 13:48:17;;;;;;;;;;;564.10;1561.60;;;;;;5089822;28;19970;-61
2022/10/17 13:50:46;;;;;;;;;;;564.10;1587.20;;;;;;5090056;28;19943;-60